createdAt,value
2023-03-22T00:02:01.128Z,76.18
2023-03-22T00:04:27.871Z,75.88
2023-03-22T00:06:54.614Z,75.94
2023-03-22T00:09:21.839Z,76.20
2023-03-22T00:11:51.226Z,76.37
2023-03-22T00:14:20.971Z,76.54
2023-03-22T00:16:49.091Z,76.27
2023-03-22T00:19:17.964Z,76.47
2023-03-22T00:21:45.242Z,76.06
2023-03-22T00:24:13.500Z,76.84
2023-03-22T00:26:40.471Z,76.36
2023-03-22T00:29:07.222Z,76.66
2023-03-22T00:31:33.988Z,76.62
2023-03-22T00:34:00.926Z,76.78
2023-03-22T00:36:27.695Z,76.35
2023-03-22T00:38:54.409Z,76.73
2023-03-22T00:41:23.911Z,76.45
2023-03-22T00:43:51.707Z,76.44
2023-03-22T00:46:21.108Z,77.25
2023-03-22T00:48:48.356Z,77.17
2023-03-22T00:54:09.677Z,76.89
2023-03-22T00:56:50.018Z,77.30
2023-03-22T00:59:17.079Z,77.02
2023-03-22T01:01:44.248Z,76.88
2023-03-22T01:04:15.631Z,77.16
2023-03-22T01:06:42.634Z,77.94
2023-03-22T01:09:15.334Z,77.75
2023-03-22T01:14:37.163Z,77.59
2023-03-22T01:17:04.181Z,77.75
2023-03-22T01:19:31.187Z,78.10
2023-03-22T01:21:57.971Z,78.17
2023-03-22T01:24:24.851Z,77.35
2023-03-22T01:26:51.809Z,77.93
2023-03-22T01:29:18.374Z,77.95
2023-03-22T01:31:45.557Z,77.27
2023-03-22T01:34:12.108Z,77.08
2023-03-22T01:36:38.757Z,76.98
2023-03-22T01:39:05.529Z,77.26
2023-03-22T01:41:35.425Z,78.01
2023-03-22T01:44:18.515Z,76.86
2023-03-22T01:46:47.176Z,78.42
2023-03-22T01:49:34.605Z,77.31
2023-03-22T01:52:07.649Z,78.15
2023-03-22T01:54:42.837Z,77.59
2023-03-22T01:57:09.842Z,77.28
2023-03-22T01:59:36.949Z,77.96
2023-03-22T02:02:04.602Z,77.92
2023-03-22T02:04:34.526Z,79.58
2023-03-22T02:07:09.946Z,77.96
2023-03-22T02:09:41.363Z,79.15
2023-03-22T02:12:30.969Z,78.28
2023-03-22T02:15:05.877Z,76.97
2023-03-22T02:18:20.943Z,78.72
2023-03-22T02:21:05.578Z,78.08
2023-03-22T02:24:13.835Z,78.25
2023-03-22T02:27:12.860Z,79.68
2023-03-22T02:29:45.355Z,78.05
2023-03-22T02:32:34.947Z,80.25
2023-03-22T02:35:32.398Z,80.30
2023-03-22T02:38:43.258Z,78.67
2023-03-22T02:41:25.641Z,77.86
2023-03-22T02:44:06.353Z,79.44
2023-03-22T02:46:43.474Z,78.38
2023-03-22T02:49:30.701Z,80.07
2023-03-22T02:52:07.792Z,81.03
2023-03-22T02:54:51.088Z,80.42
2023-03-22T02:57:33.447Z,79.11
2023-03-22T03:00:08.283Z,79.59
2023-03-22T03:02:35.947Z,79.59
2023-03-22T03:05:03.695Z,79.89
2023-03-22T03:07:31.147Z,79.65
2023-03-22T03:09:58.301Z,80.40
2023-03-22T03:12:27.097Z,80.42
2023-03-22T03:14:54.234Z,80.72
2023-03-22T03:18:00.887Z,80.77
2023-03-22T03:20:37.311Z,81.43
2023-03-22T03:23:21.774Z,80.55
2023-03-22T03:26:31.839Z,82.29
2023-03-22T03:29:14.202Z,81.80
2023-03-22T03:31:53.739Z,82.45
2023-03-22T03:34:28.102Z,81.55
2023-03-22T03:37:03.481Z,82.08
2023-03-22T03:39:34.693Z,82.29
2023-03-22T03:42:02.834Z,81.40
2023-03-22T03:44:31.614Z,81.75
2023-03-22T03:46:59.441Z,82.40
2023-03-22T03:49:27.285Z,82.33
2023-03-22T03:51:55.715Z,82.82
2023-03-22T03:54:26.217Z,82.55
2023-03-22T03:56:53.918Z,82.13
2023-03-22T03:59:21.145Z,82.63
2023-03-22T04:01:51.830Z,83.90
2023-03-22T04:04:26.541Z,84.14
2023-03-22T04:06:59.561Z,83.10
2023-03-22T04:09:28.537Z,83.11
2023-03-22T04:11:56.067Z,83.29
2023-03-22T04:14:24.635Z,83.45
2023-03-22T04:16:51.359Z,83.40
2023-03-22T04:19:18.879Z,83.91
2023-03-22T04:21:45.997Z,83.97
2023-03-22T04:24:13.086Z,83.55
2023-03-22T04:26:40.005Z,84.15
2023-03-22T04:29:07.040Z,84.11
2023-03-22T04:31:34.122Z,84.07
2023-03-22T04:34:05.687Z,84.29
2023-03-22T04:36:40.843Z,83.65
2023-03-22T04:39:10.696Z,84.54
2023-03-22T04:41:37.771Z,83.90
2023-03-22T04:44:05.800Z,83.95
2023-03-22T04:46:34.990Z,84.46
2023-03-22T04:49:01.560Z,84.59
2023-03-22T04:51:28.870Z,84.31
2023-03-22T04:53:55.469Z,84.75
2023-03-22T04:56:22.381Z,84.07
2023-03-22T04:58:48.927Z,84.28
2023-03-22T05:01:17.921Z,84.31
2023-03-22T05:03:48.428Z,84.31
2023-03-22T05:06:15.294Z,84.00
2023-03-22T05:08:42.594Z,84.10
2023-03-22T05:11:15.218Z,84.53
2023-03-22T05:13:42.336Z,84.38
2023-03-22T05:16:10.167Z,84.30
2023-03-22T05:18:42.403Z,84.16
2023-03-22T05:21:15.507Z,84.07
2023-03-22T05:23:43.416Z,84.51
2023-03-22T05:26:11.281Z,84.82
2023-03-22T05:28:38.629Z,84.00
2023-03-22T05:31:05.817Z,84.22
2023-03-22T05:33:34.748Z,84.51
2023-03-22T05:36:01.372Z,84.54
2023-03-22T05:38:28.676Z,84.44
2023-03-22T05:40:55.312Z,84.53
2023-03-22T05:43:22.097Z,84.49
2023-03-22T05:45:49.532Z,83.91
2023-03-22T05:48:16.932Z,83.93
2023-03-22T05:50:43.572Z,84.02
2023-03-22T05:53:11.572Z,84.64
2023-03-22T05:55:38.366Z,84.38
2023-03-22T05:58:05.723Z,84.62
2023-03-22T06:00:32.377Z,84.36
2023-03-22T06:03:03.275Z,84.31
2023-03-22T06:05:36.629Z,84.51
2023-03-22T06:08:04.078Z,84.78
2023-03-22T06:10:30.932Z,84.23
2023-03-22T06:12:57.531Z,84.67
2023-03-22T06:15:24.198Z,85.06
2023-03-22T06:17:50.951Z,85.06
2023-03-22T06:20:20.278Z,84.85
2023-03-22T06:22:46.929Z,84.49
2023-03-22T06:25:15.436Z,84.37
2023-03-22T06:27:42.059Z,84.88
2023-03-22T06:30:09.112Z,84.35
2023-03-22T06:32:35.774Z,85.07
2023-03-22T06:35:02.406Z,84.45
2023-03-22T06:37:29.032Z,84.48
2023-03-22T06:39:55.600Z,84.36
2023-03-22T06:42:22.185Z,84.76
2023-03-22T06:44:48.912Z,84.12
2023-03-22T06:47:15.495Z,84.34
2023-03-22T06:49:42.222Z,84.22
2023-03-22T06:52:08.972Z,84.37
2023-03-22T06:54:35.743Z,84.30
2023-03-22T06:57:02.262Z,84.21
2023-03-22T06:59:28.863Z,84.37
2023-03-22T07:01:55.433Z,83.72
2023-03-22T07:04:22.161Z,83.92
2023-03-22T07:06:48.921Z,83.94
2023-03-22T07:09:15.892Z,83.46
2023-03-22T07:11:42.680Z,83.27
2023-03-22T07:14:09.595Z,82.92
2023-03-22T07:16:36.111Z,83.16
2023-03-22T07:19:02.821Z,82.53
2023-03-22T07:21:29.593Z,82.76
2023-03-22T07:23:56.280Z,82.32
2023-03-22T07:26:22.871Z,81.99
2023-03-22T07:28:49.506Z,82.27
2023-03-22T07:31:16.367Z,82.00
2023-03-22T07:33:43.167Z,82.26
2023-03-22T07:36:10.681Z,81.62
2023-03-22T07:38:37.946Z,82.74
2023-03-22T07:44:14.812Z,83.26
2023-03-22T07:46:44.050Z,83.08
2023-03-22T07:49:11.098Z,83.76
2023-03-22T07:51:37.725Z,83.72
2023-03-22T07:54:07.530Z,83.70
2023-03-22T07:56:35.260Z,83.88
2023-03-22T07:59:02.164Z,83.15
2023-03-22T08:01:29.076Z,82.31
2023-03-22T08:03:55.720Z,82.21
2023-03-22T08:06:22.392Z,82.08
2023-03-22T08:08:49.131Z,81.83
2023-03-22T08:11:15.938Z,81.64
2023-03-22T08:16:38.364Z,80.86
2023-03-22T08:19:05.622Z,79.74
2023-03-22T08:24:27.350Z,76.90
2023-03-22T08:26:54.221Z,78.96
2023-03-22T08:29:23.051Z,78.88
2023-03-22T08:31:51.434Z,78.03
2023-03-22T08:34:18.016Z,75.45
2023-03-22T08:36:44.877Z,77.53
2023-03-22T08:39:11.554Z,77.22
2023-03-22T08:41:39.373Z,76.31
2023-03-22T08:44:06.611Z,76.26
2023-03-22T08:46:33.447Z,75.07
2023-03-22T08:49:02.427Z,74.28
2023-03-22T08:54:55.910Z,73.66
2023-03-22T08:57:25.958Z,71.75
2023-03-22T08:59:53.351Z,74.98
2023-03-22T09:02:20.702Z,73.85
2023-03-22T09:04:47.721Z,73.16
2023-03-22T09:07:14.385Z,71.11
2023-03-22T09:09:40.953Z,72.85
2023-03-22T09:12:08.105Z,72.31
2023-03-22T09:14:35.345Z,72.53
2023-03-22T09:17:02.610Z,71.33
2023-03-22T09:19:29.334Z,71.76
2023-03-22T09:21:56.366Z,72.24
2023-03-22T09:24:23.430Z,70.79
2023-03-22T09:26:50.435Z,71.26
2023-03-22T09:29:17.366Z,71.16
2023-03-22T09:31:44.709Z,71.52
2023-03-22T09:34:11.335Z,72.29
2023-03-22T09:36:37.932Z,72.27
2023-03-22T09:39:07.129Z,71.83
2023-03-22T09:41:46.714Z,72.36
2023-03-22T09:44:26.891Z,72.75
2023-03-22T09:46:59.043Z,73.14
2023-03-22T09:49:52.309Z,72.92
2023-03-22T09:52:20.501Z,73.86
2023-03-22T09:54:47.529Z,73.71
2023-03-22T09:57:22.548Z,74.34
2023-03-22T09:59:57.573Z,74.53
2023-03-22T10:02:48.126Z,75.24
2023-03-22T10:05:40.923Z,75.14
2023-03-22T10:08:46.101Z,75.03
2023-03-22T10:11:33.615Z,75.95
2023-03-22T10:14:21.334Z,75.88
2023-03-22T10:16:48.904Z,75.90
2023-03-22T10:19:32.740Z,76.27
2023-03-22T10:22:01.770Z,76.51
2023-03-22T10:24:37.958Z,76.87
2023-03-22T10:27:15.648Z,76.68
2023-03-22T10:29:56.033Z,76.54
2023-03-22T10:32:31.125Z,76.81
2023-03-22T10:34:58.274Z,77.04
2023-03-22T10:37:32.552Z,76.94
2023-03-22T10:40:06.143Z,77.52
2023-03-22T10:42:36.833Z,76.59
2023-03-22T10:45:12.275Z,77.38
2023-03-22T10:47:45.392Z,77.02
2023-03-22T10:50:19.561Z,77.64
2023-03-22T10:52:57.814Z,77.16
2023-03-22T10:55:25.948Z,77.07
2023-03-22T10:58:14.914Z,77.38
2023-03-22T11:01:00.296Z,77.28
2023-03-22T11:03:31.987Z,77.78
2023-03-22T11:06:12.034Z,77.97
2023-03-22T11:08:41.171Z,77.84
2023-03-22T11:11:20.264Z,78.23
2023-03-22T11:13:53.872Z,78.10
2023-03-22T11:16:20.773Z,78.21
2023-03-22T11:18:51.065Z,77.88
2023-03-22T11:21:19.777Z,78.02
2023-03-22T11:24:05.603Z,78.59
2023-03-22T11:26:38.824Z,78.33
2023-03-22T11:29:17.722Z,77.90
2023-03-22T11:32:02.204Z,77.41
2023-03-22T11:34:30.947Z,77.87
2023-03-22T11:37:00.998Z,77.25
2023-03-22T11:39:29.396Z,77.85
2023-03-22T11:42:01.936Z,78.26
2023-03-22T11:44:34.657Z,77.60
2023-03-22T11:47:03.234Z,77.65
2023-03-22T11:49:46.377Z,77.66
2023-03-22T11:52:18.640Z,76.61
2023-03-22T11:54:47.325Z,77.10
2023-03-22T11:57:18.738Z,76.60
2023-03-22T12:00:07.153Z,77.16
2023-03-22T12:02:41.519Z,76.86
2023-03-22T12:08:42.832Z,76.61
2023-03-22T12:11:21.042Z,76.36
2023-03-22T12:13:57.775Z,76.46
2023-03-22T12:16:36.281Z,76.19
2023-03-22T12:19:13.289Z,75.96
2023-03-22T12:21:41.533Z,76.50
2023-03-22T12:24:22.631Z,76.33
2023-03-22T12:26:53.167Z,75.69
2023-03-22T12:29:20.590Z,76.12
2023-03-22T12:32:01.793Z,75.53
2023-03-22T12:34:43.632Z,75.37
2023-03-22T12:37:17.836Z,76.12
2023-03-22T12:39:51.437Z,74.88
2023-03-22T12:42:34.640Z,75.65
2023-03-22T12:45:15.826Z,75.50
2023-03-22T12:47:47.875Z,75.45
2023-03-22T12:50:45.798Z,76.14
2023-03-22T12:53:16.452Z,75.12
2023-03-22T12:55:46.174Z,75.22
2023-03-22T12:58:18.564Z,75.13
2023-03-22T13:00:51.936Z,75.67
2023-03-22T13:03:26.828Z,74.83
2023-03-22T13:09:21.029Z,75.15
2023-03-22T13:12:09.145Z,75.07
2023-03-22T13:14:58.010Z,75.11
2023-03-22T13:17:29.605Z,75.57
2023-03-22T13:20:08.408Z,75.49
2023-03-22T13:22:43.907Z,75.39
2023-03-22T13:25:32.823Z,75.07
2023-03-22T13:28:20.542Z,75.41
2023-03-22T13:30:59.159Z,74.60
2023-03-22T13:33:29.017Z,75.67
2023-03-22T13:36:23.949Z,75.23
2023-03-22T13:39:04.808Z,74.51
2023-03-22T13:41:33.775Z,74.75
2023-03-22T13:44:18.886Z,74.88
2023-03-22T13:46:51.454Z,74.88
2023-03-22T13:49:50.042Z,75.14
2023-03-22T13:52:35.738Z,75.92
2023-03-22T13:55:03.495Z,75.48
2023-03-22T13:57:50.440Z,76.05
2023-03-22T14:03:31.612Z,75.38
2023-03-22T14:06:19.213Z,75.90
2023-03-22T14:08:49.859Z,76.21
2023-03-22T14:11:34.588Z,76.61
2023-03-22T14:14:11.315Z,76.61
2023-03-22T14:16:42.816Z,76.67
2023-03-22T14:19:17.484Z,76.85
